createdAt,value
2022-09-22T00:01:28.806Z,8.40
2022-09-22T00:04:01.442Z,8.40
2022-09-22T00:06:32.956Z,8.40
2022-09-22T00:09:02.469Z,8.40
2022-09-22T00:11:34.324Z,8.40
2022-09-22T00:14:09.190Z,8.30
2022-09-22T00:16:49.031Z,8.30
2022-09-22T00:19:22.055Z,8.30
2022-09-22T00:21:50.376Z,8.30
2022-09-22T00:24:19.261Z,8.20
2022-09-22T00:26:46.386Z,8.20
2022-09-22T00:29:13.580Z,8.20
2022-09-22T00:31:42.394Z,8.10
2022-09-22T00:34:16.106Z,8.10
2022-09-22T00:36:43.734Z,8.10
2022-09-22T00:39:12.116Z,8.10
2022-09-22T00:41:44.688Z,8.10
2022-09-22T00:44:26.858Z,8.10
2022-09-22T00:47:01.140Z,8.10
2022-09-22T00:50:00.096Z,8.10
2022-09-22T00:52:44.157Z,8.00
2022-09-22T00:55:42.858Z,8.00
2022-09-22T00:58:18.533Z,8.00
2022-09-22T01:00:45.574Z,8.00
2022-09-22T01:03:20.114Z,7.90
2022-09-22T01:05:51.676Z,7.90
2022-09-22T01:08:22.136Z,7.90
2022-09-22T01:10:49.900Z,7.90
2022-09-22T01:13:47.950Z,7.90
2022-09-22T01:16:59.002Z,7.90
2022-09-22T01:20:05.022Z,7.80
2022-09-22T01:22:34.789Z,7.80
2022-09-22T01:25:30.310Z,7.80
2022-09-22T01:28:54.886Z,7.70
2022-09-22T01:31:55.406Z,7.70
2022-09-22T01:34:52.904Z,7.70
2022-09-22T01:37:35.683Z,7.70
2022-09-22T01:40:17.839Z,7.60
2022-09-22T01:42:53.480Z,7.60
2022-09-22T01:45:31.809Z,7.60
2022-09-22T01:48:20.870Z,7.60
2022-09-22T01:51:13.020Z,7.60
2022-09-22T01:53:55.635Z,7.60
2022-09-22T01:56:27.513Z,7.60
2022-09-22T01:59:00.455Z,7.50
2022-09-22T02:01:42.734Z,7.50
2022-09-22T02:04:35.510Z,7.50
2022-09-22T02:07:15.961Z,7.50
2022-09-22T02:09:44.589Z,7.40
2022-09-22T02:12:11.432Z,7.40
2022-09-22T02:14:38.479Z,7.40
2022-09-22T02:17:07.769Z,7.40
2022-09-22T02:19:38.376Z,7.40
2022-09-22T02:22:07.482Z,7.40
2022-09-22T02:24:44.164Z,7.30
2022-09-22T02:27:26.220Z,7.30
2022-09-22T02:30:08.198Z,7.30
2022-09-22T02:32:39.347Z,7.30
2022-09-22T02:35:08.401Z,7.30
2022-09-22T02:37:50.264Z,7.30
2022-09-22T02:40:37.109Z,7.30
2022-09-22T02:43:30.016Z,7.20
2022-09-22T02:46:17.537Z,7.20
2022-09-22T02:48:51.330Z,7.20
2022-09-22T02:51:18.927Z,7.20
2022-09-22T02:53:45.803Z,7.20
2022-09-22T02:56:13.005Z,7.10
2022-09-22T02:58:39.784Z,7.10
2022-09-22T03:01:06.724Z,7.10
2022-09-22T03:03:34.895Z,7.10
2022-09-22T03:06:02.405Z,7.10
2022-09-22T03:08:29.280Z,7.00
2022-09-22T03:10:56.104Z,7.00
2022-09-22T03:13:23.073Z,7.00
2022-09-22T03:15:50.906Z,7.00
2022-09-22T03:18:17.969Z,7.00
2022-09-22T03:20:45.568Z,7.00
2022-09-22T03:23:12.491Z,7.00
2022-09-22T03:25:39.784Z,6.90
2022-09-22T03:28:06.675Z,6.90
2022-09-22T03:30:33.582Z,6.90
2022-09-22T03:33:00.451Z,6.90
2022-09-22T03:35:27.244Z,6.90
2022-09-22T03:37:54.040Z,6.90
2022-09-22T03:40:22.486Z,6.80
2022-09-22T03:42:49.394Z,6.80
2022-09-22T03:45:16.471Z,6.80
2022-09-22T03:47:43.558Z,6.80
2022-09-22T03:50:10.443Z,6.80
2022-09-22T03:52:37.349Z,6.80
2022-09-22T03:55:04.636Z,6.70
2022-09-22T03:57:31.507Z,6.80
2022-09-22T03:59:58.389Z,6.80
2022-09-22T04:02:25.382Z,6.70
2022-09-22T04:04:52.236Z,6.70
2022-09-22T04:07:19.021Z,6.70
2022-09-22T04:09:45.886Z,6.70
2022-09-22T04:12:12.694Z,6.70
2022-09-22T04:14:39.582Z,6.70
2022-09-22T04:17:06.501Z,6.70
2022-09-22T04:19:36.364Z,6.70
2022-09-22T04:22:04.160Z,6.60
2022-09-22T04:24:31.311Z,6.70
2022-09-22T04:29:44.902Z,6.60
2022-09-22T04:32:11.883Z,6.60
2022-09-22T04:34:39.081Z,6.60
2022-09-22T04:37:06.134Z,6.60
2022-09-22T04:39:33.221Z,6.60
2022-09-22T04:42:00.108Z,6.60
2022-09-22T04:44:27.118Z,6.60
2022-09-22T04:46:55.860Z,6.60
2022-09-22T04:49:23.341Z,6.50
2022-09-22T04:51:50.141Z,6.60
2022-09-22T04:54:16.965Z,6.50
2022-09-22T04:56:44.072Z,6.50
2022-09-22T04:59:11.796Z,6.50
2022-09-22T05:01:38.854Z,6.50
2022-09-22T05:04:05.945Z,6.40
2022-09-22T05:06:32.721Z,6.40
2022-09-22T05:08:59.669Z,6.50
2022-09-22T05:11:26.579Z,6.40
2022-09-22T05:13:53.421Z,6.40
2022-09-22T05:16:20.304Z,6.40
2022-09-22T05:18:50.080Z,6.40
2022-09-22T05:21:18.895Z,6.40
2022-09-22T05:23:46.770Z,6.30
2022-09-22T05:26:14.208Z,6.40
2022-09-22T05:28:41.187Z,6.30
2022-09-22T05:31:08.274Z,6.30
2022-09-22T05:33:35.173Z,6.30
2022-09-22T05:36:02.719Z,6.30
2022-09-22T05:38:29.684Z,6.40
2022-09-22T05:40:56.524Z,6.30
2022-09-22T05:43:23.363Z,6.40
2022-09-22T05:45:50.380Z,6.40
2022-09-22T05:48:17.257Z,6.40
2022-09-22T05:50:47.899Z,6.40
2022-09-22T05:53:15.693Z,6.40
2022-09-22T05:55:42.652Z,6.40
2022-09-22T05:58:14.033Z,6.40
2022-09-22T06:00:41.817Z,6.50
2022-09-22T06:03:09.064Z,6.50
2022-09-22T06:05:38.742Z,6.50
2022-09-22T06:08:06.788Z,6.60
2022-09-22T06:10:36.305Z,6.60
2022-09-22T06:13:11.473Z,6.60
2022-09-22T06:15:39.340Z,6.70
2022-09-22T06:18:11.992Z,6.80
2022-09-22T06:20:40.943Z,6.80
2022-09-22T06:23:08.962Z,6.90
2022-09-22T06:25:35.816Z,7.00
2022-09-22T06:28:09.607Z,7.00
2022-09-22T06:30:40.907Z,7.10
2022-09-22T06:33:10.346Z,7.20
2022-09-22T06:35:40.157Z,7.20
2022-09-22T06:38:09.526Z,7.30
2022-09-22T06:40:36.641Z,7.40
2022-09-22T06:43:11.779Z,7.50
2022-09-22T06:45:39.869Z,7.60
2022-09-22T06:48:09.982Z,7.70
2022-09-22T06:50:40.742Z,7.80
2022-09-22T06:53:13.986Z,7.90
2022-09-22T06:55:43.890Z,8.00
2022-09-22T06:58:12.796Z,8.20
2022-09-22T07:00:41.921Z,8.40
2022-09-22T07:03:26.322Z,8.60
2022-09-22T07:06:01.469Z,8.80
2022-09-22T07:08:30.984Z,9.10
2022-09-22T07:11:02.188Z,9.30
2022-09-22T07:13:32.078Z,9.50
2022-09-22T07:16:05.694Z,9.70
2022-09-22T07:18:32.548Z,10.00
2022-09-22T07:21:12.209Z,10.20
2022-09-22T07:23:40.828Z,10.50
2022-09-22T07:26:15.802Z,10.80
2022-09-22T07:28:44.486Z,11.00
2022-09-22T07:31:14.482Z,11.40
2022-09-22T07:33:43.606Z,11.70
2022-09-22T07:36:15.626Z,12.00
2022-09-22T07:38:45.414Z,12.20
2022-09-22T07:41:22.416Z,12.60
2022-09-22T07:43:52.227Z,12.80
2022-09-22T07:46:20.031Z,13.10
2022-09-22T07:48:47.765Z,13.50
2022-09-22T07:51:19.049Z,13.80
2022-09-22T07:54:07.230Z,14.20
2022-09-22T07:56:36.987Z,14.40
2022-09-22T07:59:10.595Z,14.70
2022-09-22T08:01:44.224Z,15.00
2022-09-22T08:04:13.894Z,15.20
2022-09-22T08:06:40.980Z,15.50
2022-09-22T08:09:09.438Z,15.80
2022-09-22T08:11:36.735Z,16.00
2022-09-22T08:14:11.954Z,16.20
2022-09-22T08:16:40.540Z,16.40
2022-09-22T08:19:12.369Z,16.70
2022-09-22T08:21:48.748Z,16.90
2022-09-22T08:24:21.654Z,17.20
2022-09-22T08:26:50.430Z,17.40
2022-09-22T08:29:17.427Z,17.70
2022-09-22T08:31:47.667Z,17.80
2022-09-22T08:34:16.894Z,18.00
2022-09-22T08:36:46.248Z,18.20
2022-09-22T08:39:14.030Z,18.40
2022-09-22T08:42:14.436Z,18.60
2022-09-22T08:45:27.019Z,18.70
2022-09-22T08:48:24.051Z,18.90
2022-09-22T08:51:16.829Z,19.10
2022-09-22T08:53:50.228Z,19.40
2022-09-22T08:56:43.223Z,19.70
2022-09-22T08:59:29.383Z,19.80
2022-09-22T09:02:44.416Z,19.90
2022-09-22T09:05:33.491Z,20.10
2022-09-22T09:08:39.227Z,20.40
2022-09-22T09:12:08.961Z,20.60
2022-09-22T09:15:02.725Z,20.60
2022-09-22T09:17:37.205Z,20.60
2022-09-22T09:20:48.892Z,20.60
2022-09-22T09:26:28.754Z,20.50
2022-09-22T09:29:04.150Z,20.60
2022-09-22T09:31:43.193Z,21.00
2022-09-22T09:34:19.776Z,21.20
2022-09-22T09:36:55.167Z,21.30
2022-09-22T09:39:32.836Z,21.60
2022-09-22T09:42:06.338Z,21.80
2022-09-22T09:44:40.010Z,21.80
2022-09-22T09:47:14.304Z,21.80
2022-09-22T09:49:41.277Z,21.70
2022-09-22T09:52:13.315Z,21.80
2022-09-22T09:54:47.096Z,21.70
2022-09-22T09:57:15.061Z,21.80
2022-09-22T10:00:06.370Z,21.90
2022-09-22T10:02:51.510Z,21.90
2022-09-22T10:05:18.534Z,21.90
2022-09-22T10:07:56.293Z,21.70
2022-09-22T10:10:38.998Z,21.70
2022-09-22T10:13:05.762Z,21.70
2022-09-22T10:15:40.303Z,21.70
2022-09-22T10:18:40.242Z,21.70
2022-09-22T10:21:23.418Z,22.00
2022-09-22T10:24:00.625Z,22.20
2022-09-22T10:26:32.674Z,22.20
2022-09-22T10:29:21.043Z,22.30
2022-09-22T10:32:14.774Z,22.60
2022-09-22T10:34:48.371Z,22.90
2022-09-22T10:37:26.786Z,23.00
2022-09-22T10:40:01.217Z,23.10
2022-09-22T10:42:36.373Z,23.30
2022-09-22T10:45:13.878Z,23.40
2022-09-22T10:47:52.364Z,23.50
2022-09-22T10:50:43.269Z,23.60
2022-09-22T10:53:50.877Z,23.90
2022-09-22T10:56:42.313Z,24.00
2022-09-22T10:59:32.493Z,23.60
2022-09-22T11:02:34.889Z,23.40
2022-09-22T11:05:46.239Z,23.60
2022-09-22T11:08:35.288Z,23.50
2022-09-22T11:11:49.172Z,23.60
2022-09-22T11:14:43.814Z,23.90
2022-09-22T11:17:43.091Z,24.30
2022-09-22T11:20:12.250Z,24.50
2022-09-22T11:23:22.706Z,24.60
2022-09-22T11:26:09.145Z,24.10
2022-09-22T11:29:05.576Z,24.20
2022-09-22T11:32:16.216Z,24.40
2022-09-22T11:35:25.369Z,24.60
2022-09-22T11:38:24.333Z,24.60
2022-09-22T11:41:30.244Z,24.30
2022-09-22T11:44:30.669Z,24.10
2022-09-22T11:47:25.787Z,24.60
2022-09-22T11:50:26.520Z,24.70
2022-09-22T11:53:14.733Z,24.80
2022-09-22T11:56:35.782Z,24.80
2022-09-22T11:59:30.685Z,25.10
2022-09-22T12:02:06.036Z,25.20
2022-09-22T12:04:38.276Z,24.60
2022-09-22T12:07:26.422Z,24.60
2022-09-22T12:10:12.535Z,24.50
2022-09-22T12:12:43.784Z,24.20
2022-09-22T12:15:28.174Z,24.20
2022-09-22T12:18:02.008Z,24.50
2022-09-22T12:21:06.576Z,25.30
2022-09-22T12:23:45.210Z,25.90
2022-09-22T12:26:27.225Z,26.40
2022-09-22T12:28:55.026Z,26.40
2022-09-22T12:31:32.970Z,26.30
2022-09-22T12:33:59.810Z,26.30
2022-09-22T12:36:38.198Z,25.90
2022-09-22T12:39:23.046Z,25.60
2022-09-22T12:42:06.822Z,25.40
2022-09-22T12:44:44.491Z,24.80
2022-09-22T12:47:34.635Z,24.60
2022-09-22T12:50:31.675Z,24.90
2022-09-22T12:53:02.856Z,24.90
2022-09-22T12:55:38.809Z,24.70
2022-09-22T12:58:20.726Z,24.90
2022-09-22T13:00:50.431Z,25.00
2022-09-22T13:03:26.474Z,25.00
2022-09-22T13:05:59.290Z,25.30
2022-09-22T13:08:36.552Z,25.40
2022-09-22T13:11:05.437Z,25.40
2022-09-22T13:13:32.196Z,25.80
2022-09-22T13:16:02.276Z,25.80
2022-09-22T13:18:40.530Z,26.10
2022-09-22T13:21:13.208Z,26.30
2022-09-22T13:23:49.188Z,26.40
2022-09-22T13:26:37.438Z,26.30
2022-09-22T13:29:17.617Z,25.80
2022-09-22T13:31:48.583Z,25.50
2022-09-22T13:34:36.375Z,25.60
2022-09-22T13:37:17.852Z,25.80
2022-09-22T13:39:51.419Z,25.90
2022-09-22T13:42:32.192Z,25.80
2022-09-22T13:45:08.683Z,25.80
2022-09-22T13:47:37.013Z,25.60
2022-09-22T13:50:19.307Z,25.60
2022-09-22T13:52:52.320Z,25.40
2022-09-22T13:55:30.366Z,25.20
2022-09-22T13:58:02.923Z,25.30
2022-09-22T14:00:55.494Z,25.50
2022-09-22T14:03:27.342Z,25.60
2022-09-22T14:05:55.723Z,25.80
2022-09-22T14:08:31.349Z,25.90
2022-09-22T14:10:59.920Z,25.60
2022-09-22T14:13:42.342Z,25.30
2022-09-22T14:16:21.231Z,25.20
2022-09-22T14:18:56.595Z,25.00
2022-09-22T14:21:23.638Z,25.10
2022-09-22T14:23:52.025Z,25.10
2022-09-22T14:26:24.482Z,24.90
2022-09-22T14:28:53.598Z,24.90
2022-09-22T14:31:32.178Z,25.00
2022-09-22T14:34:03.010Z,24.90
2022-09-22T14:36:30.094Z,25.00
2022-09-22T14:39:10.300Z,25.00
2022-09-22T14:41:38.264Z,24.90
2022-09-22T14:44:43.677Z,24.70
2022-09-22T14:47:29.674Z,24.70
2022-09-22T14:50:37.162Z,24.70
2022-09-22T14:53:26.474Z,24.70
2022-09-22T14:56:03.972Z,24.40
2022-09-22T14:58:41.287Z,24.20
2022-09-22T15:01:44.974Z,24.00
2022-09-22T15:04:30.387Z,24.10
2022-09-22T15:06:59.053Z,24.30
2022-09-22T15:09:42.679Z,24.30
2022-09-22T15:12:37.767Z,24.20
2022-09-22T15:15:17.354Z,24.10
2022-09-22T15:18:13.683Z,24.00
2022-09-22T15:20:52.038Z,23.90
2022-09-22T15:23:45.021Z,23.70
2022-09-22T15:26:25.418Z,23.60
2022-09-22T15:28:58.943Z,23.50
2022-09-22T15:31:29.575Z,23.30
2022-09-22T15:34:01.308Z,23.20
2022-09-22T15:36:33.237Z,23.10
2022-09-22T15:39:07.668Z,22.90
2022-09-22T15:41:34.875Z,22.70
2022-09-22T15:44:03.136Z,22.50
2022-09-22T15:46:38.102Z,22.40
2022-09-22T15:49:23.188Z,22.10
2022-09-22T15:51:50.564Z,21.90
2022-09-22T15:54:21.669Z,21.60
2022-09-22T15:56:52.699Z,21.40
2022-09-22T15:59:26.771Z,21.30
2022-09-22T16:01:56.912Z,21.10
2022-09-22T16:04:24.087Z,20.90
2022-09-22T16:06:59.150Z,20.80
2022-09-22T16:09:26.157Z,20.80
2022-09-22T16:11:53.769Z,20.70
2022-09-22T16:14:22.699Z,20.60
2022-09-22T16:16:49.642Z,20.50
2022-09-22T16:19:16.678Z,20.40
2022-09-22T16:21:56.864Z,20.30
2022-09-22T16:24:27.875Z,20.20
2022-09-22T16:26:54.926Z,20.10
2022-09-22T16:29:22.138Z,20.10
2022-09-22T16:31:49.248Z,20.00
2022-09-22T16:34:16.220Z,20.00
2022-09-22T16:36:44.479Z,19.90
2022-09-22T16:39:11.254Z,19.80
2022-09-22T16:41:45.066Z,19.80
2022-09-22T16:44:12.184Z,19.80
2022-09-22T16:46:39.190Z,19.80
2022-09-22T16:49:13.596Z,19.80
2022-09-22T16:51:49.642Z,19.70
2022-09-22T16:54:18.500Z,19.70
2022-09-22T16:56:48.914Z,19.60
2022-09-22T16:59:18.549Z,19.50
2022-09-22T17:01:45.950Z,19.50
2022-09-22T17:04:16.337Z,19.40
2022-09-22T17:06:43.901Z,19.40
2022-09-22T17:09:13.972Z,19.30
2022-09-22T17:11:45.318Z,19.30
2022-09-22T17:14:20.996Z,19.20
2022-09-22T17:16:52.072Z,19.10
2022-09-22T17:19:23.318Z,19.10
2022-09-22T17:21:53.084Z,19.00
2022-09-22T17:24:20.714Z,19.00
2022-09-22T17:26:51.988Z,18.90
2022-09-22T17:29:25.888Z,18.80
2022-09-22T17:31:59.846Z,18.60
2022-09-22T17:34:28.777Z,18.50
2022-09-22T17:36:57.296Z,18.30
2022-09-22T17:39:25.916Z,18.20
2022-09-22T17:41:53.036Z,18.10
2022-09-22T17:44:21.371Z,17.90
2022-09-22T17:47:11.469Z,17.80
2022-09-22T17:49:58.282Z,17.60
2022-09-22T17:52:31.928Z,17.50
2022-09-22T17:55:07.899Z,17.40
2022-09-22T17:57:37.405Z,17.30
2022-09-22T18:00:08.721Z,17.10
2022-09-22T18:02:36.642Z,17.00
2022-09-22T18:05:11.135Z,16.90
2022-09-22T18:07:40.001Z,16.90
2022-09-22T18:10:14.365Z,16.80
2022-09-22T18:12:42.241Z,16.70
2022-09-22T18:15:13.223Z,16.50
2022-09-22T18:17:42.475Z,16.40
2022-09-22T18:20:17.986Z,16.20
2022-09-22T18:22:49.095Z,16.10
2022-09-22T18:25:19.636Z,16.00
2022-09-22T18:27:48.388Z,15.90
2022-09-22T18:30:17.568Z,15.80
2022-09-22T18:32:44.502Z,15.70
2022-09-22T18:35:12.725Z,15.70
2022-09-22T18:37:39.651Z,15.60
2022-09-22T18:40:07.451Z,15.50
2022-09-22T18:42:36.488Z,15.40
2022-09-22T18:45:04.033Z,15.40
2022-09-22T18:47:30.813Z,15.30
2022-09-22T18:49:58.580Z,15.20
2022-09-22T18:52:25.589Z,15.10
2022-09-22T18:54:53.966Z,15.10
2022-09-22T18:57:25.315Z,15.00
2022-09-22T18:59:52.352Z,14.90
2022-09-22T19:02:23.332Z,14.80
2022-09-22T19:04:53.360Z,14.70
2022-09-22T19:07:43.577Z,14.70
2022-09-22T19:10:15.410Z,14.60
2022-09-22T19:12:43.007Z,14.50
2022-09-22T19:15:15.250Z,14.50
2022-09-22T19:17:44.889Z,14.50
2022-09-22T19:20:23.887Z,14.50
2022-09-22T19:22:52.415Z,14.40
2022-09-22T19:25:21.406Z,14.40
2022-09-22T19:27:49.569Z,14.40
2022-09-22T19:30:20.543Z,14.30
2022-09-22T19:32:50.097Z,14.20
2022-09-22T19:35:17.126Z,14.10
2022-09-22T19:37:44.014Z,14.10
2022-09-22T19:40:18.532Z,14.00
2022-09-22T19:42:49.854Z,14.00
2022-09-22T19:45:17.074Z,13.90
2022-09-22T19:47:43.910Z,13.90
2022-09-22T19:50:10.802Z,13.80
2022-09-22T19:52:38.103Z,13.70
2022-09-22T19:55:07.977Z,13.60
2022-09-22T19:57:41.094Z,13.50
2022-09-22T20:00:17.090Z,13.40
2022-09-22T20:02:45.121Z,13.40
2022-09-22T20:05:22.023Z,13.30
2022-09-22T20:07:49.518Z,13.20
2022-09-22T20:10:19.183Z,13.20
2022-09-22T20:12:46.000Z,13.10
2022-09-22T20:15:15.698Z,13.00
2022-09-22T20:17:46.028Z,13.00
2022-09-22T20:20:22.775Z,13.00
2022-09-22T20:22:59.873Z,13.00
2022-09-22T20:25:31.576Z,12.90
2022-09-22T20:27:59.082Z,12.80
2022-09-22T20:30:27.154Z,12.80
2022-09-22T20:32:54.186Z,12.70
2022-09-22T20:35:21.746Z,12.70
2022-09-22T20:37:48.793Z,12.60
2022-09-22T20:40:20.388Z,12.60
2022-09-22T20:42:48.645Z,12.60
2022-09-22T20:45:15.633Z,12.50
2022-09-22T20:47:42.399Z,12.50
2022-09-22T20:50:11.819Z,12.50
2022-09-22T20:52:44.889Z,12.50
2022-09-22T20:55:17.024Z,12.40
2022-09-22T20:57:46.007Z,12.30
2022-09-22T21:00:15.160Z,12.30
2022-09-22T21:02:42.203Z,12.20
2022-09-22T21:05:09.299Z,12.20
2022-09-22T21:07:36.106Z,12.20
2022-09-22T21:10:21.707Z,12.10
2022-09-22T21:12:50.587Z,12.10
2022-09-22T21:15:19.130Z,12.00
2022-09-22T21:17:48.511Z,12.00
2022-09-22T21:20:15.494Z,11.90
2022-09-22T21:22:43.870Z,11.90
2022-09-22T21:25:10.872Z,11.90
2022-09-22T21:27:37.859Z,11.80
2022-09-22T21:30:05.308Z,11.80
2022-09-22T21:32:33.145Z,11.70
2022-09-22T21:35:00.354Z,11.70
2022-09-22T21:37:27.601Z,11.70
2022-09-22T21:39:54.423Z,11.60
2022-09-22T21:42:21.343Z,11.70
2022-09-22T21:44:48.560Z,11.60
2022-09-22T21:47:15.389Z,11.60
2022-09-22T21:49:42.230Z,11.60
2022-09-22T21:52:09.135Z,11.50
2022-09-22T21:54:35.943Z,11.50
2022-09-22T21:57:02.738Z,11.50
2022-09-22T21:59:29.692Z,11.40
2022-09-22T22:01:56.512Z,11.40
2022-09-22T22:04:23.463Z,11.40
2022-09-22T22:06:50.538Z,11.30
2022-09-22T22:09:20.415Z,11.30
2022-09-22T22:11:55.363Z,11.30
2022-09-22T22:14:25.446Z,11.20
2022-09-22T22:16:55.416Z,11.20
2022-09-22T22:19:26.553Z,11.20
2022-09-22T22:21:54.776Z,11.10
2022-09-22T22:24:24.576Z,11.10
2022-09-22T22:26:58.068Z,11.10
2022-09-22T22:29:27.416Z,11.10
2022-09-22T22:31:54.621Z,11.00
2022-09-22T22:34:25.614Z,11.10
2022-09-22T22:36:58.088Z,11.10
2022-09-22T22:39:25.323Z,11.00
2022-09-22T22:41:54.383Z,11.00
2022-09-22T22:44:21.408Z,11.00
2022-09-22T22:46:48.456Z,11.00
2022-09-22T22:49:15.569Z,11.00
2022-09-22T22:51:43.584Z,11.00
2022-09-22T22:54:12.535Z,11.00
2022-09-22T22:56:42.349Z,11.00
2022-09-22T22:59:11.267Z,10.90
2022-09-22T23:01:38.297Z,10.90
2022-09-22T23:04:07.914Z,10.90
2022-09-22T23:06:39.333Z,10.90
2022-09-22T23:09:11.778Z,10.80
2022-09-22T23:11:40.531Z,10.80
2022-09-22T23:14:11.178Z,10.80
2022-09-22T23:16:45.223Z,10.70
2022-09-22T23:19:17.108Z,10.70
2022-09-22T23:21:45.180Z,10.70
2022-09-22T23:24:18.735Z,10.70
2022-09-22T23:26:46.404Z,10.70
2022-09-22T23:29:13.630Z,10.60
2022-09-22T23:31:40.419Z,10.60
2022-09-22T23:34:07.261Z,10.60
2022-09-22T23:36:34.392Z,10.60
2022-09-22T23:39:03.964Z,10.60
2022-09-22T23:41:37.088Z,10.50
2022-09-22T23:44:06.473Z,10.50
2022-09-22T23:46:33.882Z,10.50
2022-09-22T23:49:01.159Z,10.50
2022-09-22T23:51:28.508Z,10.50
2022-09-22T23:53:56.048Z,10.50
2022-09-22T23:56:24.113Z,10.50
2022-09-22T23:58:51.966Z,10.50
